Terre Haute International Hulman Field
KHUF : now visible

Airfield :











YOU CAN JOIN US ON...

 
LOGIN :

Register | Disclaimer

   EN    FR    IT 

 









Legend :    VFR   Marginal VFR   IFR   Intensive IFR   Very Intensive IFR
Visi :
Ceiling :
>= 8 km
>= 3000ft
5 to 8 km
1000 to 3000 ft
1500m to 5 km
500 to 1000 ft
800 to 1500m
200 to 500 ft
< 800m
< 200 ft
Symbols :   Thunderstorms  Fog  Heavy snow  Heavy precipitations  Wind > 20 kt






- Airport Elevation : 589 ft
- IATA code : HUF


KHUF - Terre Haute International Hulman Field

CURRENT METAR :
  • 200753Z 00000KT 10SM OVC055 11/10 A2980 RMK AO2 SLP089 T01110100

EXPIRED METARs :
  • 200653Z 00000KT 10SM BKN050 BKN100 10/09 A2979 RMK AO2 SLP087 T01000089
  • 200553Z 00000KT 10SM FEW110 09/08 A2978 RMK AO2 SLP084 T00940083 10144 20089 58003

TAF KHUF
Valid from the 20 at 06:00 until the 21 at 06:00 UTC


200520Z 2006/2106 VRB04KT P6SM BKN120
FM201400 00000KT P6SM SCT090
FM202000 VRB04KT P6SM SCT060
FM210500 14006KT P6SM BKN200



MET'MAP, your aeronautical weather chart ! - Copyright ORBIFLY December 2007 - Disclaimer

ORBIFLY MET'MAP TEAM :

Programming & Development : Alexandra Zaïnal
Concept & Development : Baudouin d'Aumeries
Co-Development & Prog : Marc-Olivier Méhu
Technical & hardware support : Manuel Goepfert

Contact : metmap@orbifly.com




SOURCES & CREDITS :

   NOAA       Earth
Advisory